Time;durP1;ratioP1;P1;durP2;ratioP2;P2;SDS_P1;SDS_P2;PMS_P1;PMS_P2;Temp;Humidity;BMP_temperature;BMP_pressure;BME280_temperature;BME280_humidity;BME280_pressure;Samples;Min_cycle;Max_cycle;Signal;HPM_P1;HPM_P2
2021/11/26 00:01:32;;;;;;;;;;;4.00;86.60;;;;;;4844863;29;19925;-72
2021/11/26 00:04:01;;;;;;;;;;;4.10;86.40;;;;;;4828328;29;19924;-72
2021/11/26 00:06:29;;;;;;;;;;;4.10;86.40;;;;;;4816818;29;19948;-73
2021/11/26 00:08:57;;;;;;;;;;;4.20;86.40;;;;;;4826420;29;19935;-73
2021/11/26 00:11:24;;;;;;;;;;;4.20;86.40;;;;;;4826130;29;19924;-73
2021/11/26 00:14:10;;;;;;;;;;;4.20;86.40;;;;;;4825864;29;19924;-72
2021/11/26 00:16:40;;;;;;;;;;;4.20;86.50;;;;;;4825571;29;19925;-73
2021/11/26 00:19:08;;;;;;;;;;;4.20;86.50;;;;;;4809956;29;19925;-72
2021/11/26 00:21:37;;;;;;;;;;;4.30;86.60;;;;;;4824392;29;19941;-72
2021/11/26 00:24:05;;;;;;;;;;;4.30;86.70;;;;;;4809991;29;19931;-72
2021/11/26 00:26:33;;;;;;;;;;;4.30;86.70;;;;;;4825495;29;19925;-72
2021/11/26 00:29:01;;;;;;;;;;;4.30;86.80;;;;;;4825646;29;19925;-72
2021/11/26 00:31:28;;;;;;;;;;;4.20;86.80;;;;;;4825971;29;20290;-72
2021/11/26 00:33:56;;;;;;;;;;;4.30;86.90;;;;;;4826039;29;19928;-72
2021/11/26 00:36:24;;;;;;;;;;;4.20;87.00;;;;;;4826390;29;20279;-72
2021/11/26 00:38:51;;;;;;;;;;;4.30;87.00;;;;;;4824589;29;20316;-72
2021/11/26 00:41:18;;;;;;;;;;;4.30;87.00;;;;;;4825697;29;19925;-72
2021/11/26 00:43:46;;;;;;;;;;;4.30;87.00;;;;;;4824496;29;19925;-72
2021/11/26 00:46:13;;;;;;;;;;;4.30;87.10;;;;;;4825595;29;19925;-72
2021/11/26 00:48:41;;;;;;;;;;;4.30;87.10;;;;;;4808558;29;19925;-72
2021/11/26 00:51:09;;;;;;;;;;;4.30;87.10;;;;;;4824464;29;19932;-72
2021/11/26 00:53:37;;;;;;;;;;;4.30;87.10;;;;;;4825739;29;19951;-72
2021/11/26 00:56:05;;;;;;;;;;;4.30;87.10;;;;;;4825163;29;19924;-72
2021/11/26 00:58:32;;;;;;;;;;;4.40;86.90;;;;;;4824206;29;19924;-72
2021/11/26 01:01:00;;;;;;;;;;;4.40;86.90;;;;;;4824781;29;20395;-72
2021/11/26 01:03:28;;;;;;;;;;;4.40;86.90;;;;;;4825129;29;20367;-72
2021/11/26 01:10:28;;;;;;;;;;;4.50;86.80;;;;;;4843397;29;19943;-71
2021/11/26 01:12:55;;;;;;;;;;;4.40;86.90;;;;;;4843413;29;19925;-72
2021/11/26 01:15:24;;;;;;;;;;;4.50;86.90;;;;;;4842658;29;19928;-72
2021/11/26 01:17:52;;;;;;;;;;;4.40;86.90;;;;;;4827259;29;19931;-72
2021/11/26 01:20:22;;;;;;;;;;;4.40;87.00;;;;;;4842690;29;19935;-72
2021/11/26 01:22:52;;;;;;;;;;;4.40;87.10;;;;;;4827009;29;19947;-72
2021/11/26 01:25:19;;;;;;;;;;;4.40;87.20;;;;;;4826853;29;20306;-72
2021/11/26 01:27:47;;;;;;;;;;;4.40;87.20;;;;;;4827279;29;19947;-72
2021/11/26 01:30:27;;;;;;;;;;;4.50;87.30;;;;;;4842555;29;20378;-72
2021/11/26 01:32:56;;;;;;;;;;;4.50;87.30;;;;;;4843047;29;19925;-73
2021/11/26 01:35:24;;;;;;;;;;;4.40;87.40;;;;;;4842186;29;19932;-72
2021/11/26 01:37:52;;;;;;;;;;;4.50;87.40;;;;;;4842785;29;19924;-73
2021/11/26 01:40:20;;;;;;;;;;;4.50;87.60;;;;;;4843612;29;19925;-74
2021/11/26 01:42:52;;;;;;;;;;;4.50;87.60;;;;;;4826882;29;19947;-72
2021/11/26 01:45:19;;;;;;;;;;;4.60;87.70;;;;;;4827375;29;20393;-73
2021/11/26 01:47:47;;;;;;;;;;;4.60;87.50;;;;;;4842541;29;19928;-73
2021/11/26 01:50:16;;;;;;;;;;;4.60;87.70;;;;;;4826865;29;19924;-74
2021/11/26 01:52:43;;;;;;;;;;;4.60;87.70;;;;;;4842514;29;19931;-74
2021/11/26 01:55:11;;;;;;;;;;;4.60;87.70;;;;;;4842885;29;19930;-73
2021/11/26 02:02:04;;;;;;;;;;;4.70;87.60;;;;;;4849505;29;19919;-74
2021/11/26 02:04:31;;;;;;;;;;;4.70;87.70;;;;;;4841543;29;19924;-72
2021/11/26 02:06:59;;;;;;;;;;;4.70;87.70;;;;;;4842313;29;19932;-72
2021/11/26 02:09:28;;;;;;;;;;;4.70;87.90;;;;;;4841915;29;19996;-71
2021/11/26 02:11:55;;;;;;;;;;;4.70;88.00;;;;;;4842525;29;19933;-71
2021/11/26 02:14:23;;;;;;;;;;;4.80;88.20;;;;;;4842893;29;19928;-71
2021/11/26 02:16:50;;;;;;;;;;;4.80;88.10;;;;;;4842655;29;19924;-71
2021/11/26 02:19:24;;;;;;;;;;;4.80;88.20;;;;;;4842355;29;19951;-71
2021/11/26 02:21:52;;;;;;;;;;;4.80;88.10;;;;;;4842475;29;19924;-72
2021/11/26 02:24:20;;;;;;;;;;;4.90;88.00;;;;;;4842233;29;19932;-72
2021/11/26 02:26:49;;;;;;;;;;;5.00;87.90;;;;;;4825513;29;19928;-71
2021/11/26 02:29:17;;;;;;;;;;;5.00;87.90;;;;;;4811376;29;19929;-72
2021/11/26 02:31:45;;;;;;;;;;;5.10;87.80;;;;;;4841524;29;19931;-72
2021/11/26 02:34:13;;;;;;;;;;;5.10;87.80;;;;;;4842415;29;19924;-72
2021/11/26 02:36:40;;;;;;;;;;;5.20;87.80;;;;;;4811589;29;20351;-71
2021/11/26 02:39:09;;;;;;;;;;;5.20;87.80;;;;;;4841883;29;19928;-71
2021/11/26 02:41:37;;;;;;;;;;;5.30;87.70;;;;;;4842263;29;19925;-71
2021/11/26 02:44:05;;;;;;;;;;;5.30;87.70;;;;;;4842488;29;19925;-71
2021/11/26 02:46:33;;;;;;;;;;;5.30;87.70;;;;;;4844601;29;19924;-71
2021/11/26 02:49:01;;;;;;;;;;;5.30;87.80;;;;;;4846394;29;19947;-71
2021/11/26 02:51:29;;;;;;;;;;;5.40;87.80;;;;;;4845727;29;19924;-72
2021/11/26 02:53:56;;;;;;;;;;;5.40;87.80;;;;;;4845712;29;19924;-72
2021/11/26 02:56:23;;;;;;;;;;;5.50;87.80;;;;;;4846154;29;19928;-72
2021/11/26 02:58:51;;;;;;;;;;;5.50;87.90;;;;;;4845646;29;20366;-71
2021/11/26 03:01:18;;;;;;;;;;;5.50;87.90;;;;;;4845142;29;20375;-72
2021/11/26 03:03:46;;;;;;;;;;;5.50;87.90;;;;;;4845525;29;19924;-72
2021/11/26 03:06:13;;;;;;;;;;;5.50;87.90;;;;;;4844336;29;19931;-71
2021/11/26 03:13:12;;;;;;;;;;;5.50;87.90;;;;;;4845163;29;19936;-71
2021/11/26 03:15:40;;;;;;;;;;;5.60;87.80;;;;;;4829451;29;19925;-71
2021/11/26 03:18:09;;;;;;;;;;;5.60;87.90;;;;;;4844782;29;19928;-71
2021/11/26 03:20:36;;;;;;;;;;;5.70;87.90;;;;;;4829405;29;19935;-72
2021/11/26 03:23:03;;;;;;;;;;;5.70;87.90;;;;;;4845663;29;19924;-72
2021/11/26 03:25:31;;;;;;;;;;;5.70;87.90;;;;;;4844653;29;20393;-72
2021/11/26 03:27:58;;;;;;;;;;;5.80;87.80;;;;;;4844431;29;20395;-72
2021/11/26 03:30:26;;;;;;;;;;;5.80;87.70;;;;;;4828411;29;19931;-72
2021/11/26 03:32:56;;;;;;;;;;;5.80;87.50;;;;;;4844323;29;19924;-72
2021/11/26 03:35:24;;;;;;;;;;;5.80;87.60;;;;;;4845767;29;19925;-72
2021/11/26 03:37:51;;;;;;;;;;;5.80;87.70;;;;;;4845049;29;19932;-72
2021/11/26 03:40:20;;;;;;;;;;;5.80;87.80;;;;;;4844464;29;19925;-72
2021/11/26 03:42:48;;;;;;;;;;;5.90;87.90;;;;;;4845389;29;19925;-71
2021/11/26 03:45:16;;;;;;;;;;;5.80;88.00;;;;;;4844942;29;20362;-72
2021/11/26 03:47:43;;;;;;;;;;;5.80;88.00;;;;;;4844693;29;19947;-72
2021/11/26 03:50:11;;;;;;;;;;;5.80;88.10;;;;;;4844619;29;19924;-72
2021/11/26 03:52:39;;;;;;;;;;;5.80;88.20;;;;;;4844151;29;19928;-72
2021/11/26 03:55:09;;;;;;;;;;;5.90;88.10;;;;;;4845018;29;19931;-72
2021/11/26 03:57:37;;;;;;;;;;;5.90;88.20;;;;;;4827238;29;19931;-72
2021/11/26 04:00:05;;;;;;;;;;;5.90;88.10;;;;;;4844361;29;19925;-72
2021/11/26 04:02:38;;;;;;;;;;;6.00;88.00;;;;;;4828447;29;19928;-72
2021/11/26 04:05:06;;;;;;;;;;;5.90;88.20;;;;;;4844184;29;20371;-72
2021/11/26 04:07:33;;;;;;;;;;;5.90;88.40;;;;;;4844113;29;19924;-72
2021/11/26 04:10:01;;;;;;;;;;;5.90;88.60;;;;;;4827332;29;19931;-72
2021/11/26 04:12:29;;;;;;;;;;;5.90;88.80;;;;;;4844228;29;19928;-72
2021/11/26 04:14:56;;;;;;;;;;;5.80;89.00;;;;;;4845150;29;20310;-72
2021/11/26 04:17:24;;;;;;;;;;;5.80;89.20;;;;;;4844321;29;19929;-72
2021/11/26 04:24:17;;;;;;;;;;;5.80;89.40;;;;;;4850339;29;19919;-72
2021/11/26 04:26:44;;;;;;;;;;;5.80;89.50;;;;;;4843952;29;19924;-72
2021/11/26 04:33:34;;;;;;;;;;;5.80;89.60;;;;;;4850478;29;19919;-72
2021/11/26 04:36:02;;;;;;;;;;;5.80;89.60;;;;;;4843903;29;19925;-72
2021/11/26 04:38:29;;;;;;;;;;;5.80;89.70;;;;;;4843667;29;19924;-72
2021/11/26 04:40:57;;;;;;;;;;;5.80;89.60;;;;;;4844456;29;19931;-73
2021/11/26 04:43:24;;;;;;;;;;;5.90;89.60;;;;;;4827419;29;20302;-72
2021/11/26 04:45:52;;;;;;;;;;;6.00;89.50;;;;;;4844020;29;19924;-72
2021/11/26 04:48:20;;;;;;;;;;;6.00;89.40;;;;;;4812045;29;19925;-71
2021/11/26 04:50:48;;;;;;;;;;;6.00;89.40;;;;;;4843837;29;19924;-71
2021/11/26 04:53:15;;;;;;;;;;;6.00;89.40;;;;;;4843808;29;20290;-71
2021/11/26 04:55:43;;;;;;;;;;;6.10;89.30;;;;;;4844122;29;19924;-71
2021/11/26 05:02:42;;;;;;;;;;;6.10;89.40;;;;;;4849879;29;19935;-71
2021/11/26 05:05:09;;;;;;;;;;;6.00;89.60;;;;;;4843367;29;19928;-72
2021/11/26 05:07:37;;;;;;;;;;;6.00;89.90;;;;;;4841933;29;19925;-71
2021/11/26 05:10:05;;;;;;;;;;;5.90;90.00;;;;;;4843240;29;19931;-71
2021/11/26 05:12:39;;;;;;;;;;;6.00;90.30;;;;;;4843188;29;19924;-71
2021/11/26 05:15:07;;;;;;;;;;;5.90;90.60;;;;;;4843464;29;19924;-71
2021/11/26 05:17:34;;;;;;;;;;;5.90;91.00;;;;;;4827485;29;19931;-71
2021/11/26 05:20:02;;;;;;;;;;;5.90;91.20;;;;;;4842455;29;19924;-71
2021/11/26 05:22:30;;;;;;;;;;;6.00;91.30;;;;;;4843835;29;19936;-71
2021/11/26 05:24:57;;;;;;;;;;;6.00;91.40;;;;;;4843244;29;19924;-71
2021/11/26 05:27:24;;;;;;;;;;;6.00;91.50;;;;;;4842468;29;19932;-71
2021/11/26 05:29:52;;;;;;;;;;;6.00;91.60;;;;;;4842966;29;20299;-71
2021/11/26 05:32:19;;;;;;;;;;;6.00;91.60;;;;;;4843225;29;19924;-72
2021/11/26 05:34:46;;;;;;;;;;;6.00;91.70;;;;;;4843392;29;19924;-71
2021/11/26 05:37:14;;;;;;;;;;;6.10;91.70;;;;;;4842814;29;19996;-71
2021/11/26 05:39:42;;;;;;;;;;;6.10;91.80;;;;;;4842758;29;19931;-71
2021/11/26 05:42:09;;;;;;;;;;;6.10;91.90;;;;;;4842251;29;19924;-70
2021/11/26 05:44:36;;;;;;;;;;;6.10;91.90;;;;;;4842766;29;20409;-69
2021/11/26 05:47:04;;;;;;;;;;;6.10;92.10;;;;;;4842623;29;20367;-70
2021/11/26 05:49:31;;;;;;;;;;;6.10;92.30;;;;;;4842796;29;20314;-71
2021/11/26 05:51:58;;;;;;;;;;;6.10;92.40;;;;;;4827217;29;20291;-71
2021/11/26 05:54:26;;;;;;;;;;;6.10;92.40;;;;;;4843505;29;19924;-72
2021/11/26 05:56:57;;;;;;;;;;;6.10;92.40;;;;;;4843292;29;19924;-72
2021/11/26 05:59:24;;;;;;;;;;;6.20;92.50;;;;;;4842795;29;19931;-73
2021/11/26 06:01:52;;;;;;;;;;;6.20;92.60;;;;;;4842618;29;19925;-72
2021/11/26 06:04:19;;;;;;;;;;;6.20;92.60;;;;;;4842130;29;19924;-73
2021/11/26 06:06:47;;;;;;;;;;;6.20;92.60;;;;;;4843354;29;19931;-72
2021/11/26 06:09:14;;;;;;;;;;;6.20;92.70;;;;;;4842432;29;19932;-73
2021/11/26 06:11:42;;;;;;;;;;;6.30;92.70;;;;;;4842468;29;19931;-73
2021/11/26 06:14:09;;;;;;;;;;;6.30;92.60;;;;;;4843166;29;19924;-72
2021/11/26 06:16:36;;;;;;;;;;;6.30;92.70;;;;;;4842197;29;19925;-71
2021/11/26 06:19:04;;;;;;;;;;;6.30;92.70;;;;;;4843330;29;19947;-72
2021/11/26 06:21:31;;;;;;;;;;;6.30;92.70;;;;;;4843247;29;19925;-72
2021/11/26 06:23:59;;;;;;;;;;;6.30;92.60;;;;;;4846956;29;19924;-74
2021/11/26 06:26:26;;;;;;;;;;;6.30;92.70;;;;;;4847150;29;19924;-72
2021/11/26 06:28:54;;;;;;;;;;;6.30;92.70;;;;;;4845741;29;20375;-72
2021/11/26 06:31:21;;;;;;;;;;;6.30;92.80;;;;;;4845984;29;19940;-71
2021/11/26 06:33:49;;;;;;;;;;;6.30;92.90;;;;;;4845795;29;20282;-72
2021/11/26 06:36:16;;;;;;;;;;;6.40;92.90;;;;;;4829341;29;20031;-72
2021/11/26 06:38:44;;;;;;;;;;;6.40;93.00;;;;;;4845574;29;19932;-73
2021/11/26 06:41:11;;;;;;;;;;;6.40;93.10;;;;;;4846550;29;19924;-70
2021/11/26 06:43:38;;;;;;;;;;;6.40;93.10;;;;;;4845807;29;20278;-70
2021/11/26 06:46:06;;;;;;;;;;;6.40;93.20;;;;;;4845162;29;19925;-72
2021/11/26 06:48:33;;;;;;;;;;;6.40;93.30;;;;;;4845614;29;19931;-71
2021/11/26 06:51:00;;;;;;;;;;;6.40;93.40;;;;;;4845540;29;19928;-71
2021/11/26 06:53:28;;;;;;;;;;;6.40;93.50;;;;;;4845989;29;19936;-70
2021/11/26 06:55:55;;;;;;;;;;;6.40;93.70;;;;;;4844713;29;19931;-70
2021/11/26 06:58:23;;;;;;;;;;;6.50;93.70;;;;;;4845640;29;20385;-77
2021/11/26 07:00:50;;;;;;;;;;;6.50;93.80;;;;;;4844941;29;19925;-77
2021/11/26 07:03:17;;;;;;;;;;;6.40;93.50;;;;;;4829106;29;20401;-77
2021/11/26 07:05:45;;;;;;;;;;;6.20;92.10;;;;;;4845667;29;19925;-76
2021/11/26 07:08:13;;;;;;;;;;;5.80;91.10;;;;;;4845618;29;19925;-72
2021/11/26 07:10:40;;;;;;;;;;;5.50;91.30;;;;;;4845996;29;19932;-71
2021/11/26 07:13:07;;;;;;;;;;;5.50;91.90;;;;;;4845420;29;19925;-70
2021/11/26 07:15:35;;;;;;;;;;;5.40;92.30;;;;;;4845500;29;19925;-70
2021/11/26 07:18:02;;;;;;;;;;;5.50;92.70;;;;;;4828876;29;20394;-70
2021/11/26 07:20:30;;;;;;;;;;;5.50;93.00;;;;;;4845412;29;19924;-70
2021/11/26 07:23:00;;;;;;;;;;;5.60;93.10;;;;;;4845322;29;19928;-70
2021/11/26 07:25:27;;;;;;;;;;;5.70;93.20;;;;;;4845649;29;19931;-71
2021/11/26 07:27:55;;;;;;;;;;;5.80;93.30;;;;;;4845193;29;19925;-70
2021/11/26 07:30:22;;;;;;;;;;;5.90;93.40;;;;;;4844616;29;19935;-71
2021/11/26 07:32:50;;;;;;;;;;;6.00;93.80;;;;;;4844033;29;19931;-71
2021/11/26 07:35:17;;;;;;;;;;;6.20;94.10;;;;;;4845015;29;19924;-71
2021/11/26 07:37:45;;;;;;;;;;;6.30;94.30;;;;;;4845053;29;19931;-72
2021/11/26 07:40:15;;;;;;;;;;;6.50;94.30;;;;;;4829863;29;19931;-72
2021/11/26 07:42:44;;;;;;;;;;;6.50;94.20;;;;;;4843961;29;19924;-72
2021/11/26 07:45:12;;;;;;;;;;;6.60;94.20;;;;;;4845394;29;19924;-72
2021/11/26 07:47:39;;;;;;;;;;;6.70;94.10;;;;;;4844867;29;19924;-72
2021/11/26 07:50:08;;;;;;;;;;;6.70;93.90;;;;;;4844090;29;19929;-72
2021/11/26 07:52:36;;;;;;;;;;;6.80;93.90;;;;;;4844474;29;19925;-71
2021/11/26 07:55:05;;;;;;;;;;;6.80;93.80;;;;;;4844748;29;19924;-72
2021/11/26 07:57:32;;;;;;;;;;;6.80;93.80;;;;;;4844853;29;19925;-73
2021/11/26 08:00:00;;;;;;;;;;;7.00;93.50;;;;;;4844868;29;19925;-73
2021/11/26 08:02:38;;;;;;;;;;;7.00;93.30;;;;;;4844410;29;19928;-73
2021/11/26 08:05:06;;;;;;;;;;;7.00;93.20;;;;;;4843991;29;20029;-72
2021/11/26 08:07:34;;;;;;;;;;;7.10;93.10;;;;;;4843723;29;19925;-71
2021/11/26 08:10:04;;;;;;;;;;;7.10;92.80;;;;;;4843666;29;20318;-71
2021/11/26 08:12:31;;;;;;;;;;;7.00;91.80;;;;;;4844461;29;19935;-70
2021/11/26 08:14:58;;;;;;;;;;;6.80;90.10;;;;;;4843127;29;19924;-70
2021/11/26 08:17:26;;;;;;;;;;;6.60;89.70;;;;;;4844238;29;19924;-70
2021/11/26 08:19:53;;;;;;;;;;;6.40;89.70;;;;;;4843982;29;19924;-70
2021/11/26 08:22:40;;;;;;;;;;;6.20;89.70;;;;;;4844332;29;19932;-70
2021/11/26 08:25:08;;;;;;;;;;;6.20;89.50;;;;;;4843734;29;19925;-70
2021/11/26 08:27:38;;;;;;;;;;;6.10;89.80;;;;;;4844197;29;19924;-70
2021/11/26 08:30:06;;;;;;;;;;;6.00;90.00;;;;;;4844259;29;19931;-71
2021/11/26 08:32:33;;;;;;;;;;;6.00;90.10;;;;;;4842399;29;20375;-71
2021/11/26 08:35:01;;;;;;;;;;;5.90;89.70;;;;;;4844034;29;19931;-71
2021/11/26 08:37:28;;;;;;;;;;;5.80;89.50;;;;;;4844034;29;19924;-71
2021/11/26 08:39:56;;;;;;;;;;;5.80;89.50;;;;;;4842977;29;19947;-71
2021/11/26 08:42:23;;;;;;;;;;;5.70;89.70;;;;;;4842297;29;19956;-72
2021/11/26 08:44:51;;;;;;;;;;;5.70;89.80;;;;;;4843752;29;19924;-72
2021/11/26 08:47:18;;;;;;;;;;;5.50;89.90;;;;;;4844379;29;20390;-72
2021/11/26 08:49:45;;;;;;;;;;;5.50;90.00;;;;;;4843813;29;20283;-72
2021/11/26 08:52:13;;;;;;;;;;;5.50;90.20;;;;;;4827495;29;19924;-72
2021/11/26 08:54:41;;;;;;;;;;;5.50;90.10;;;;;;4843740;29;20007;-72
2021/11/26 08:57:08;;;;;;;;;;;5.40;90.20;;;;;;4843741;29;19925;-72
2021/11/26 08:59:36;;;;;;;;;;;5.50;90.30;;;;;;4843703;29;19940;-72
2021/11/26 09:02:03;;;;;;;;;;;5.50;90.40;;;;;;4843624;29;19948;-72
2021/11/26 09:04:30;;;;;;;;;;;5.50;90.40;;;;;;4842360;29;19932;-72
2021/11/26 09:06:58;;;;;;;;;;;5.50;90.60;;;;;;4842617;29;19924;-72
2021/11/26 09:13:45;;;;;;;;;;;5.60;90.90;;;;;;4843000;29;20414;-73
2021/11/26 09:16:12;;;;;;;;;;;5.70;91.00;;;;;;4843004;29;19924;-72
2021/11/26 09:18:40;;;;;;;;;;;5.80;91.10;;;;;;4827289;29;19924;-71
2021/11/26 09:21:07;;;;;;;;;;;5.90;91.20;;;;;;4843825;29;19924;-71
2021/11/26 09:23:35;;;;;;;;;;;6.00;91.20;;;;;;4843207;29;19924;-71
2021/11/26 09:26:03;;;;;;;;;;;6.10;91.20;;;;;;4843267;29;19924;-71
2021/11/26 09:28:30;;;;;;;;;;;6.10;91.20;;;;;;4843401;29;19924;-71
2021/11/26 09:30:58;;;;;;;;;;;6.10;91.10;;;;;;4842469;29;19924;-71
2021/11/26 09:33:27;;;;;;;;;;;6.10;91.10;;;;;;4843119;29;19932;-72
2021/11/26 09:35:57;;;;;;;;;;;6.00;91.20;;;;;;4842585;29;20287;-72
2021/11/26 09:38:24;;;;;;;;;;;6.00;91.30;;;;;;4843054;29;19935;-72
2021/11/26 09:40:52;;;;;;;;;;;6.10;91.40;;;;;;4843015;29;19925;-72
2021/11/26 09:43:19;;;;;;;;;;;6.20;91.50;;;;;;4841868;29;19991;-72
2021/11/26 09:45:47;;;;;;;;;;;6.30;91.60;;;;;;4842967;29;19924;-72
2021/11/26 09:52:41;;;;;;;;;;;6.80;91.40;;;;;;4849109;29;19923;-73
2021/11/26 09:55:10;;;;;;;;;;;7.10;90.90;;;;;;4842339;29;19931;-73
2021/11/26 09:57:38;;;;;;;;;;;7.20;90.30;;;;;;4842868;29;19929;-73
2021/11/26 10:00:07;;;;;;;;;;;7.20;90.10;;;;;;4842201;29;20374;-73
2021/11/26 10:07:00;;;;;;;;;;;7.00;89.20;;;;;;4848974;29;19920;-73
2021/11/26 10:09:28;;;;;;;;;;;7.00;88.90;;;;;;4841485;29;19924;-73
2021/11/26 10:11:56;;;;;;;;;;;6.90;87.20;;;;;;4842476;29;19954;-73
2021/11/26 10:14:34;;;;;;;;;;;6.80;85.00;;;;;;4842818;29;19928;-73
2021/11/26 10:17:12;;;;;;;;;;;6.70;84.70;;;;;;4843101;29;19924;-73
2021/11/26 10:24:12;;;;;;;;;;;6.50;85.00;;;;;;4848622;29;19919;-74
2021/11/26 10:26:40;;;;;;;;;;;6.40;85.00;;;;;;4842584;29;19931;-74
2021/11/26 10:29:07;;;;;;;;;;;6.40;85.00;;;;;;4842417;29;19931;-74
2021/11/26 10:31:36;;;;;;;;;;;6.40;84.10;;;;;;4843237;29;19931;-74
2021/11/26 10:34:12;;;;;;;;;;;6.40;83.70;;;;;;4842824;29;20294;-74
2021/11/26 10:36:42;;;;;;;;;;;6.50;83.00;;;;;;4842511;29;20267;-74
2021/11/26 10:39:13;;;;;;;;;;;6.50;83.00;;;;;;4826781;29;19931;-74
2021/11/26 10:41:41;;;;;;;;;;;6.70;82.80;;;;;;4826381;29;19925;-74
2021/11/26 10:44:09;;;;;;;;;;;6.80;82.20;;;;;;4842513;29;19947;-74
2021/11/26 10:47:00;;;;;;;;;;;6.80;82.30;;;;;;4840686;29;19947;-74
2021/11/26 10:52:24;;;;;;;;;;;6.90;83.20;;;;;;4843155;29;19925;-75
2021/11/26 10:59:25;;;;;;;;;;;7.20;83.20;;;;;;4848456;29;19920;-74
2021/11/26 11:01:53;;;;;;;;;;;7.30;83.80;;;;;;4842567;29;19925;-74
2021/11/26 11:04:22;;;;;;;;;;;7.50;83.90;;;;;;4842325;29;19924;-74
2021/11/26 11:07:02;;;;;;;;;;;7.70;83.80;;;;;;4843367;29;20291;-74
2021/11/26 11:13:49;;;;;;;;;;;7.70;83.70;;;;;;4844722;29;19921;-74
2021/11/26 11:16:17;;;;;;;;;;;7.60;84.60;;;;;;4846389;29;19924;-74
2021/11/26 11:18:44;;;;;;;;;;;7.70;84.80;;;;;;4845910;29;20322;-74
2021/11/26 11:21:12;;;;;;;;;;;7.90;84.80;;;;;;4845765;29;19949;-74
2021/11/26 11:23:39;;;;;;;;;;;8.00;84.70;;;;;;4845833;29;20362;-74
2021/11/26 11:26:07;;;;;;;;;;;8.00;84.00;;;;;;4845874;29;19931;-74
2021/11/26 11:28:35;;;;;;;;;;;7.90;84.20;;;;;;4844509;29;19925;-74
2021/11/26 11:31:02;;;;;;;;;;;7.80;83.70;;;;;;4845204;29;19933;-74
2021/11/26 11:33:30;;;;;;;;;;;7.60;83.90;;;;;;4845210;29;19924;-73
2021/11/26 11:36:03;;;;;;;;;;;7.40;85.10;;;;;;4845204;29;19925;-72
2021/11/26 11:38:30;;;;;;;;;;;7.30;85.80;;;;;;4845218;29;20289;-71
2021/11/26 11:41:00;;;;;;;;;;;7.20;86.20;;;;;;4828558;29;19932;-71
2021/11/26 11:43:27;;;;;;;;;;;7.00;86.50;;;;;;4845143;29;19931;-72
2021/11/26 11:45:58;;;;;;;;;;;6.90;87.00;;;;;;4845703;29;19929;-70
2021/11/26 11:48:27;;;;;;;;;;;6.70;86.70;;;;;;4845566;29;20032;-70
2021/11/26 11:50:54;;;;;;;;;;;6.40;86.80;;;;;;4844150;29;19928;-70
2021/11/26 11:53:31;;;;;;;;;;;6.30;87.20;;;;;;4844427;29;20390;-70
2021/11/26 11:56:07;;;;;;;;;;;6.20;87.70;;;;;;4844195;29;19924;-70
2021/11/26 11:58:47;;;;;;;;;;;6.10;88.10;;;;;;4844884;29;19928;-70
2021/11/26 12:01:19;;;;;;;;;;;6.00;87.70;;;;;;4845524;29;19935;-70
2021/11/26 12:03:48;;;;;;;;;;;5.90;87.30;;;;;;4828968;29;19932;-70
2021/11/26 12:06:15;;;;;;;;;;;5.90;87.00;;;;;;4844702;29;19932;-70
2021/11/26 12:08:47;;;;;;;;;;;5.80;86.70;;;;;;4813122;29;19924;-71
2021/11/26 12:11:23;;;;;;;;;;;5.80;87.00;;;;;;4844975;29;19929;-70
2021/11/26 12:13:59;;;;;;;;;;;5.80;87.40;;;;;;4843969;29;19924;-71
2021/11/26 12:16:27;;;;;;;;;;;5.80;87.60;;;;;;4844497;29;20386;-71
2021/11/26 12:18:55;;;;;;;;;;;5.70;88.00;;;;;;4843907;29;19924;-71
2021/11/26 12:21:24;;;;;;;;;;;5.70;88.20;;;;;;4844851;29;19947;-71
2021/11/26 12:24:11;;;;;;;;;;;5.70;88.30;;;;;;4844316;29;19943;-70
2021/11/26 12:26:48;;;;;;;;;;;5.70;88.30;;;;;;4844195;29;19925;-71
2021/11/26 12:29:16;;;;;;;;;;;5.60;88.30;;;;;;4844176;29;20414;-70
2021/11/26 12:31:44;;;;;;;;;;;5.60;88.40;;;;;;4812807;29;20036;-70
2021/11/26 12:34:13;;;;;;;;;;;5.60;88.40;;;;;;4843686;29;20386;-70
2021/11/26 12:36:45;;;;;;;;;;;5.50;88.40;;;;;;4844130;29;19924;-70
2021/11/26 12:39:24;;;;;;;;;;;5.60;88.40;;;;;;4844380;29;19960;-69
2021/11/26 12:41:53;;;;;;;;;;;5.60;88.50;;;;;;4844054;29;19947;-69
2021/11/26 12:44:22;;;;;;;;;;;5.70;88.60;;;;;;4844205;29;19931;-71
2021/11/26 12:46:54;;;;;;;;;;;5.70;88.70;;;;;;4843979;29;19924;-68
2021/11/26 12:51:50;;;;;;;;;;;5.70;89.20;;;;;;4827428;29;20295;-73
2021/11/26 12:54:22;;;;;;;;;;;5.80;89.20;;;;;;4827360;29;19924;-72
2021/11/26 13:01:15;;;;;;;;;;;5.90;89.50;;;;;;4849828;29;19919;-72
2021/11/26 13:03:44;;;;;;;;;;;6.00;89.10;;;;;;4843484;29;19925;-72
2021/11/26 13:06:12;;;;;;;;;;;6.00;88.90;;;;;;4843914;29;19924;-72
2021/11/26 13:08:40;;;;;;;;;;;6.00;88.70;;;;;;4843309;29;20264;-72
2021/11/26 13:11:08;;;;;;;;;;;6.10;88.30;;;;;;4812538;29;19935;-72
2021/11/26 13:13:38;;;;;;;;;;;6.10;87.70;;;;;;4838684;29;19929;-72
2021/11/26 13:16:14;;;;;;;;;;;6.20;87.20;;;;;;4809484;29;19925;-72
2021/11/26 13:18:49;;;;;;;;;;;6.20;87.00;;;;;;4825598;29;20287;-72
2021/11/26 13:21:24;;;;;;;;;;;6.30;86.80;;;;;;4825797;29;20007;-73
2021/11/26 13:23:52;;;;;;;;;;;6.40;86.30;;;;;;4825265;29;19925;-73
2021/11/26 13:26:19;;;;;;;;;;;6.50;85.70;;;;;;4824228;29;19925;-73
2021/11/26 13:28:48;;;;;;;;;;;6.50;85.70;;;;;;4824935;29;19932;-73
2021/11/26 13:31:18;;;;;;;;;;;6.40;85.50;;;;;;4823327;29;19925;-73
2021/11/26 13:33:46;;;;;;;;;;;6.40;85.60;;;;;;4808369;29;19928;-73
2021/11/26 13:36:16;;;;;;;;;;;6.40;85.70;;;;;;4824958;29;20310;-74
2021/11/26 13:38:44;;;;;;;;;;;6.40;85.90;;;;;;4824514;29;19936;-73
2021/11/26 13:41:20;;;;;;;;;;;6.40;86.40;;;;;;4823106;29;19924;-74
2021/11/26 13:43:50;;;;;;;;;;;6.30;86.70;;;;;;4824187;29;20339;-74
2021/11/26 13:46:25;;;;;;;;;;;6.30;86.70;;;;;;4825069;29;19924;-74
2021/11/26 13:48:55;;;;;;;;;;;6.30;86.10;;;;;;4809056;29;19932;-74
2021/11/26 13:51:27;;;;;;;;;;;6.30;85.70;;;;;;4824597;29;20295;-73
2021/11/26 13:53:56;;;;;;;;;;;6.30;85.40;;;;;;4823582;29;19940;-73
2021/11/26 13:56:28;;;;;;;;;;;6.30;84.70;;;;;;4825241;29;19925;-73
2021/11/26 13:58:58;;;;;;;;;;;6.20;83.80;;;;;;4824964;29;20298;-73
2021/11/26 14:01:26;;;;;;;;;;;6.20;83.10;;;;;;4824862;29;19928;-73
2021/11/26 14:04:04;;;;;;;;;;;6.20;83.20;;;;;;4824233;29;19931;-74
2021/11/26 14:06:56;;;;;;;;;;;6.30;82.90;;;;;;4808869;29;20355;-74
2021/11/26 14:09:23;;;;;;;;;;;6.50;82.40;;;;;;4825005;29;19925;-73
2021/11/26 14:11:51;;;;;;;;;;;6.50;81.90;;;;;;4824011;29;19932;-74
2021/11/26 14:14:20;;;;;;;;;;;6.60;81.10;;;;;;4841936;29;20355;-74
2021/11/26 14:16:49;;;;;;;;;;;6.60;80.10;;;;;;4841913;29;19924;-74
2021/11/26 14:19:46;;;;;;;;;;;6.50;79.00;;;;;;4856434;29;19932;-74
2021/11/26 14:22:20;;;;;;;;;;;6.50;77.90;;;;;;4837468;29;19924;-72
2021/11/26 14:24:53;;;;;;;;;;;6.40;78.30;;;;;;4841737;29;19925;-71
2021/11/26 14:27:25;;;;;;;;;;;6.40;77.50;;;;;;4826949;29;19924;-72
2021/11/26 14:29:53;;;;;;;;;;;6.30;76.80;;;;;;4843253;29;19932;-73
2021/11/26 14:32:21;;;;;;;;;;;6.30;77.00;;;;;;4842704;29;19932;-73
2021/11/26 14:34:50;;;;;;;;;;;6.20;77.10;;;;;;4842406;29;19932;-72
2021/11/26 14:37:21;;;;;;;;;;;6.10;76.40;;;;;;4842364;29;19929;-73
2021/11/26 14:39:49;;;;;;;;;;;6.00;75.70;;;;;;4842694;29;19924;-72
2021/11/26 14:42:17;;;;;;;;;;;5.90;75.80;;;;;;4844168;29;19924;-73
2021/11/26 14:44:46;;;;;;;;;;;5.80;76.00;;;;;;4846185;29;19924;-72
2021/11/26 14:47:28;;;;;;;;;;;5.70;75.00;;;;;;4846746;29;19931;-73
2021/11/26 14:49:56;;;;;;;;;;;5.70;75.10;;;;;;4844035;29;20379;-72
2021/11/26 14:52:30;;;;;;;;;;;5.70;75.00;;;;;;4846107;29;19951;-72
2021/11/26 14:54:58;;;;;;;;;;;5.70;75.00;;;;;;4846907;29;20397;-72
2021/11/26 14:57:27;;;;;;;;;;;5.70;73.80;;;;;;4845476;29;20371;-72
2021/11/26 14:59:56;;;;;;;;;;;5.70;73.20;;;;;;4845417;29;19931;-72
2021/11/26 15:02:24;;;;;;;;;;;5.60;72.40;;;;;;4846303;29;19941;-72
2021/11/26 15:04:52;;;;;;;;;;;5.50;72.50;;;;;;4844576;29;19924;-73
2021/11/26 15:07:25;;;;;;;;;;;5.50;72.80;;;;;;4844051;29;19924;-72
2021/11/26 15:09:52;;;;;;;;;;;5.40;72.60;;;;;;4845264;29;19924;-72
2021/11/26 15:12:20;;;;;;;;;;;5.30;72.60;;;;;;4844246;29;19924;-72
2021/11/26 15:14:48;;;;;;;;;;;5.20;72.80;;;;;;4845709;29;19931;-72
2021/11/26 15:17:17;;;;;;;;;;;5.20;73.00;;;;;;4845441;29;19935;-72
2021/11/26 15:19:46;;;;;;;;;;;5.10;73.20;;;;;;4845250;29;19931;-72
2021/11/26 15:22:14;;;;;;;;;;;5.00;73.00;;;;;;4844066;29;19931;-72
2021/11/26 15:24:42;;;;;;;;;;;5.00;72.20;;;;;;4859913;29;19924;-74
2021/11/26 15:27:09;;;;;;;;;;;4.90;71.60;;;;;;4845265;29;19924;-73
2021/11/26 15:29:39;;;;;;;;;;;4.80;71.40;;;;;;4844743;29;19931;-72
2021/11/26 15:32:07;;;;;;;;;;;4.80;71.10;;;;;;4844040;29;19932;-73
2021/11/26 15:34:35;;;;;;;;;;;4.70;70.60;;;;;;4845119;29;19924;-72
2021/11/26 15:37:03;;;;;;;;;;;4.60;70.70;;;;;;4843073;29;19932;-72
2021/11/26 15:39:31;;;;;;;;;;;4.60;70.10;;;;;;4828411;29;20302;-72
2021/11/26 15:41:58;;;;;;;;;;;4.50;69.90;;;;;;4844942;29;19931;-72
2021/11/26 15:44:25;;;;;;;;;;;4.50;68.90;;;;;;4843256;29;19924;-72